Alpine, Arkansas
Current Conditions -  °F | °C
As of 3:15 AM on Monday 22 Dec 2014 (Local Time) from KADF Reporting Station
Haze Haze  
Wind Chill: 44°   Ceiling: 1200
Heat Index: 46°   Visibility: 3mi
Dew Point: 46°   Wind: 5mph
Humidity: 100%   Direction: 120°ESE
Pressure: 29.8"   Gusts: NA
Location:  34.23°N, 93.38°W
Report Text: KADF 220915Z AUTO 12004KT 3SM BR BKN012 OVC033 08/08 A2980 RMK AO2
Loading
Personal Weather Stations






























Interactive Weather Map New forecast layout! Learn more

10-Day Weather Forecast

Advertisements
Track Severe Weather on mobile